sensor_id;sensor_type;location;lat;lon;timestamp;pressure;altitude;pressure_sealevel;temperature;humidity
77590;BME280;66746;51.328;12.332;2024-01-11T00:00:36;102014.56;;;-9.12;100.00
77590;BME280;66746;51.328;12.332;2024-01-11T00:03:03;102008.28;;;-9.14;100.00
77590;BME280;66746;51.328;12.332;2024-01-11T00:05:30;102009.03;;;-9.17;100.00
77590;BME280;66746;51.328;12.332;2024-01-11T00:07:58;102019.03;;;-9.11;100.00
77590;BME280;66746;51.328;12.332;2024-01-11T00:10:24;102019.22;;;-9.08;100.00
77590;BME280;66746;51.328;12.332;2024-01-11T00:12:51;102007.31;;;-9.03;100.00
77590;BME280;66746;51.328;12.332;2024-01-11T00:15:17;102015.78;;;-9.07;100.00
77590;BME280;66746;51.328;12.332;2024-01-11T00:17:44;102009.91;;;-9.16;100.00
77590;BME280;66746;51.328;12.332;2024-01-11T00:20:11;102011.53;;;-9.18;100.00
77590;BME280;66746;51.328;12.332;2024-01-11T00:22:37;102016.78;;;-9.18;100.00
77590;BME280;66746;51.328;12.332;2024-01-11T00:25:06;102014.78;;;-9.22;100.00
77590;BME280;66746;51.328;12.332;2024-01-11T00:27:33;102014.06;;;-9.20;100.00
77590;BME280;66746;51.328;12.332;2024-01-11T00:29:59;102012.53;;;-9.16;100.00
77590;BME280;66746;51.328;12.332;2024-01-11T00:32:26;102007.91;;;-9.20;100.00
77590;BME280;66746;51.328;12.332;2024-01-11T00:34:52;102005.16;;;-9.22;100.00
77590;BME280;66746;51.328;12.332;2024-01-11T00:37:19;102017.78;;;-9.16;100.00
77590;BME280;66746;51.328;12.332;2024-01-11T00:39:46;102014.28;;;-9.17;100.00
77590;BME280;66746;51.328;12.332;2024-01-11T00:42:13;102014.16;;;-9.18;100.00
77590;BME280;66746;51.328;12.332;2024-01-11T00:44:42;101987.88;;;-9.31;100.00
77590;BME280;66746;51.328;12.332;2024-01-11T00:47:09;102009.13;;;-9.28;100.00
77590;BME280;66746;51.328;12.332;2024-01-11T00:49:35;102010.13;;;-9.26;100.00
77590;BME280;66746;51.328;12.332;2024-01-11T00:52:02;101999.41;;;-9.29;100.00
77590;BME280;66746;51.328;12.332;2024-01-11T00:54:29;101990.13;;;-9.24;100.00
77590;BME280;66746;51.328;12.332;2024-01-11T00:56:55;101990.50;;;-9.18;100.00
77590;BME280;66746;51.328;12.332;2024-01-11T00:59:23;101996.59;;;-9.19;100.00
77590;BME280;66746;51.328;12.332;2024-01-11T01:01:50;101983.25;;;-9.22;100.00
77590;BME280;66746;51.328;12.332;2024-01-11T01:04:17;101972.44;;;-9.27;100.00
77590;BME280;66746;51.328;12.332;2024-01-11T01:06:43;101970.84;;;-9.25;100.00
77590;BME280;66746;51.328;12.332;2024-01-11T01:09:10;101957.81;;;-9.36;100.00
77590;BME280;66746;51.328;12.332;2024-01-11T01:11:37;101965.88;;;-9.33;100.00
77590;BME280;66746;51.328;12.332;2024-01-11T01:14:04;101976.69;;;-9.29;100.00
77590;BME280;66746;51.328;12.332;2024-01-11T01:16:32;101974.16;;;-9.27;100.00
77590;BME280;66746;51.328;12.332;2024-01-11T01:19:02;101982.03;;;-9.27;100.00
77590;BME280;66746;51.328;12.332;2024-01-11T01:21:29;101987.69;;;-9.21;100.00
77590;BME280;66746;51.328;12.332;2024-01-11T01:23:56;101998.59;;;-9.28;100.00
77590;BME280;66746;51.328;12.332;2024-01-11T01:26:22;102016.59;;;-9.21;100.00
77590;BME280;66746;51.328;12.332;2024-01-11T01:28:49;102019.63;;;-9.15;100.00
77590;BME280;66746;51.328;12.332;2024-01-11T01:31:16;102008.28;;;-9.14;100.00
77590;BME280;66746;51.328;12.332;2024-01-11T01:33:43;102004.19;;;-9.11;100.00
77590;BME280;66746;51.328;12.332;2024-01-11T01:36:10;102005.47;;;-9.04;100.00
77590;BME280;66746;51.328;12.332;2024-01-11T01:38:37;102003.25;;;-8.98;100.00
77590;BME280;66746;51.328;12.332;2024-01-11T01:41:04;101993.75;;;-8.96;100.00
77590;BME280;66746;51.328;12.332;2024-01-11T01:43:30;101990.34;;;-8.95;100.00
77590;BME280;66746;51.328;12.332;2024-01-11T01:45:58;101983.16;;;-9.11;100.00
77590;BME280;66746;51.328;12.332;2024-01-11T01:48:24;101972.63;;;-9.24;100.00
77590;BME280;66746;51.328;12.332;2024-01-11T01:50:53;101976.88;;;-9.26;100.00
77590;BME280;66746;51.328;12.332;2024-01-11T01:53:21;101991.19;;;-9.34;100.00
77590;BME280;66746;51.328;12.332;2024-01-11T01:55:50;101977.69;;;-9.40;100.00
77590;BME280;66746;51.328;12.332;2024-01-11T01:58:28;101996.75;;;-9.42;100.00
77590;BME280;66746;51.328;12.332;2024-01-11T02:00:55;101997.06;;;-9.38;100.00
77590;BME280;66746;51.328;12.332;2024-01-11T02:03:23;101995.06;;;-9.42;100.00
77590;BME280;66746;51.328;12.332;2024-01-11T02:05:50;101987.06;;;-9.43;100.00
77590;BME280;66746;51.328;12.332;2024-01-11T02:08:20;101973.75;;;-9.33;100.00
77590;BME280;66746;51.328;12.332;2024-01-11T02:10:48;101983.03;;;-9.25;100.00
77590;BME280;66746;51.328;12.332;2024-01-11T02:13:15;101974.16;;;-9.27;100.00
77590;BME280;66746;51.328;12.332;2024-01-11T02:15:41;101984.06;;;-9.23;100.00
77590;BME280;66746;51.328;12.332;2024-01-11T02:18:08;101980.84;;;-9.32;100.00
77590;BME280;66746;51.328;12.332;2024-01-11T02:20:34;101988.56;;;-9.34;100.00
77590;BME280;66746;51.328;12.332;2024-01-11T02:23:05;101983.47;;;-9.32;100.00
77590;BME280;66746;51.328;12.332;2024-01-11T02:25:33;101973.56;;;-9.36;100.00
77590;BME280;66746;51.328;12.332;2024-01-11T02:27:59;101989.31;;;-9.36;100.00
77590;BME280;66746;51.328;12.332;2024-01-11T02:30:26;101991.09;;;-9.35;100.00
77590;BME280;66746;51.328;12.332;2024-01-11T02:32:53;101980.41;;;-9.38;100.00
77590;BME280;66746;51.328;12.332;2024-01-11T02:35:21;101979.91;;;-9.46;100.00
77590;BME280;66746;51.328;12.332;2024-01-11T02:37:48;101971.91;;;-9.47;100.00
77590;BME280;66746;51.328;12.332;2024-01-11T02:40:14;101988.47;;;-9.48;100.00
77590;BME280;66746;51.328;12.332;2024-01-11T02:42:42;101999.38;;;-9.42;100.00
77590;BME280;66746;51.328;12.332;2024-01-11T02:45:10;102019.78;;;-9.38;100.00
77590;BME280;66746;51.328;12.332;2024-01-11T02:47:36;102020.41;;;-9.29;100.00
77590;BME280;66746;51.328;12.332;2024-01-11T02:50:03;102009.13;;;-9.28;100.00
77590;BME280;66746;51.328;12.332;2024-01-11T02:52:30;101998.78;;;-9.38;100.00
77590;BME280;66746;51.328;12.332;2024-01-11T02:54:57;102013.53;;;-9.40;100.00
77590;BME280;66746;51.328;12.332;2024-01-11T02:57:23;102014.44;;;-9.40;100.00
77590;BME280;66746;51.328;12.332;2024-01-11T02:59:51;102003.41;;;-9.47;100.00
77590;BME280;66746;51.328;12.332;2024-01-11T03:02:18;101989.84;;;-9.53;100.00
77590;BME280;66746;51.328;12.332;2024-01-11T03:04:44;101998.56;;;-9.54;100.00
77590;BME280;66746;51.328;12.332;2024-01-11T03:07:11;102005.25;;;-9.46;100.00
77590;BME280;66746;51.328;12.332;2024-01-11T03:09:38;102004.41;;;-9.45;100.00
77590;BME280;66746;51.328;12.332;2024-01-11T03:12:04;101985.75;;;-9.50;100.00
77590;BME280;66746;51.328;12.332;2024-01-11T03:14:31;101986.22;;;-9.55;100.00
77590;BME280;66746;51.328;12.332;2024-01-11T03:16:59;101999.34;;;-9.55;100.00
77590;BME280;66746;51.328;12.332;2024-01-11T03:19:25;101996.94;;;-9.52;100.00
77590;BME280;66746;51.328;12.332;2024-01-11T03:21:52;101978.16;;;-9.58;100.00
77590;BME280;66746;51.328;12.332;2024-01-11T03:24:18;101973.59;;;-9.61;100.00
77590;BME280;66746;51.328;12.332;2024-01-11T03:26:45;101974.59;;;-9.59;100.00
77590;BME280;66746;51.328;12.332;2024-01-11T03:29:11;101992.63;;;-9.52;100.00
77590;BME280;66746;51.328;12.332;2024-01-11T03:31:38;101962.00;;;-9.51;100.00
77590;BME280;66746;51.328;12.332;2024-01-11T03:34:06;101944.84;;;-9.59;100.00
77590;BME280;66746;51.328;12.332;2024-01-11T03:36:32;101948.28;;;-9.47;100.00
77590;BME280;66746;51.328;12.332;2024-01-11T03:38:59;101957.69;;;-9.25;100.00
77590;BME280;66746;51.328;12.332;2024-01-11T03:41:25;101957.59;;;-9.26;100.00
77590;BME280;66746;51.328;12.332;2024-01-11T03:43:52;101945.47;;;-9.37;100.00
77590;BME280;66746;51.328;12.332;2024-01-11T03:46:20;101938.00;;;-9.44;100.00
77590;BME280;66746;51.328;12.332;2024-01-11T03:48:46;101945.56;;;-9.49;100.00
77590;BME280;66746;51.328;12.332;2024-01-11T03:51:14;101935.38;;;-9.57;100.00
77590;BME280;66746;51.328;12.332;2024-01-11T03:53:40;101924.47;;;-9.37;100.00
77590;BME280;66746;51.328;12.332;2024-01-11T03:56:07;101931.63;;;-9.22;100.00
77590;BME280;66746;51.328;12.332;2024-01-11T03:58:35;101946.00;;;-9.17;100.00
77590;BME280;66746;51.328;12.332;2024-01-11T04:01:02;101974.56;;;-9.21;100.00
77590;BME280;66746;51.328;12.332;2024-01-11T04:03:28;101965.50;;;-9.26;100.00
77590;BME280;66746;51.328;12.332;2024-01-11T04:05:55;101962.81;;;-9.39;100.00
77590;BME280;66746;51.328;12.332;2024-01-11T04:08:23;101971.72;;;-9.37;100.00
77590;BME280;66746;51.328;12.332;2024-01-11T04:10:50;101963.66;;;-9.40;100.00
77590;BME280;66746;51.328;12.332;2024-01-11T04:13:16;101969.50;;;-9.44;100.00
77590;BME280;66746;51.328;12.332;2024-01-11T04:15:43;101970.47;;;-9.55;100.00
77590;BME280;66746;51.328;12.332;2024-01-11T04:18:09;101997.63;;;-9.55;100.00
77590;BME280;66746;51.328;12.332;2024-01-11T04:20:36;101998.38;;;-9.57;100.00
77590;BME280;66746;51.328;12.332;2024-01-11T04:23:03;101992.47;;;-9.66;100.00
77590;BME280;66746;51.328;12.332;2024-01-11T04:25:31;101999.13;;;-9.71;100.00
77590;BME280;66746;51.328;12.332;2024-01-11T04:27:57;102004.16;;;-9.74;100.00
77590;BME280;66746;51.328;12.332;2024-01-11T04:30:24;102007.38;;;-9.78;100.00
77590;BME280;66746;51.328;12.332;2024-01-11T04:32:50;102016.06;;;-9.79;100.00
77590;BME280;66746;51.328;12.332;2024-01-11T04:35:17;102024.28;;;-9.86;100.00
77590;BME280;66746;51.328;12.332;2024-01-11T04:37:43;102028.25;;;-9.80;100.00
77590;BME280;66746;51.328;12.332;2024-01-11T04:40:10;102033.41;;;-9.81;100.00
77590;BME280;66746;51.328;12.332;2024-01-11T04:42:38;102037.81;;;-9.80;100.00
77590;BME280;66746;51.328;12.332;2024-01-11T04:45:05;102035.19;;;-9.80;100.00
77590;BME280;66746;51.328;12.332;2024-01-11T04:47:31;102026.53;;;-9.79;100.00
77590;BME280;66746;51.328;12.332;2024-01-11T04:49:58;102023.09;;;-9.78;100.00
77590;BME280;66746;51.328;12.332;2024-01-11T04:52:25;102022.00;;;-9.82;100.00
77590;BME280;66746;51.328;12.332;2024-01-11T04:54:54;102014.66;;;-9.74;100.00
77590;BME280;66746;51.328;12.332;2024-01-11T04:57:20;102010.81;;;-9.79;100.00
77590;BME280;66746;51.328;12.332;2024-01-11T04:59:48;101998.28;;;-9.83;100.00
77590;BME280;66746;51.328;12.332;2024-01-11T05:02:15;101999.63;;;-9.77;100.00
77590;BME280;66746;51.328;12.332;2024-01-11T05:04:41;101994.50;;;-9.62;100.00
77590;BME280;66746;51.328;12.332;2024-01-11T05:07:08;101987.56;;;-9.49;100.00
77590;BME280;66746;51.328;12.332;2024-01-11T05:09:34;101976.88;;;-9.39;100.00
77590;BME280;66746;51.328;12.332;2024-01-11T05:12:01;101977.06;;;-9.49;100.00
77590;BME280;66746;51.328;12.332;2024-01-11T05:14:27;101968.16;;;-9.51;100.00
77590;BME280;66746;51.328;12.332;2024-01-11T05:16:55;101963.41;;;-9.56;100.00
77590;BME280;66746;51.328;12.332;2024-01-11T05:19:22;101973.94;;;-9.43;100.00
77590;BME280;66746;51.328;12.332;2024-01-11T05:21:49;101981.44;;;-9.23;100.00
77590;BME280;66746;51.328;12.332;2024-01-11T05:24:15;101988.53;;;-9.22;100.00
77590;BME280;66746;51.328;12.332;2024-01-11T05:26:42;101976.41;;;-9.20;100.00
77590;BME280;66746;51.328;12.332;2024-01-11T05:29:08;101969.63;;;-9.17;100.00
77590;BME280;66746;51.328;12.332;2024-01-11T05:31:35;101977.19;;;-9.21;100.00
77590;BME280;66746;51.328;12.332;2024-01-11T05:34:03;101974.84;;;-9.30;100.00
77590;BME280;66746;51.328;12.332;2024-01-11T05:36:31;101989.72;;;-9.30;100.00
77590;BME280;66746;51.328;12.332;2024-01-11T05:38:57;101996.34;;;-9.35;100.00
77590;BME280;66746;51.328;12.332;2024-01-11T05:41:24;102004.03;;;-9.38;100.00
77590;BME280;66746;51.328;12.332;2024-01-11T05:43:50;101982.91;;;-9.53;100.00
77590;BME280;66746;51.328;12.332;2024-01-11T05:46:17;102002.19;;;-9.52;100.00
77590;BME280;66746;51.328;12.332;2024-01-11T05:48:53;101988.88;;;-9.42;100.00
77590;BME280;66746;51.328;12.332;2024-01-11T05:51:21;101993.72;;;-9.35;100.00
77590;BME280;66746;51.328;12.332;2024-01-11T05:53:48;102028.69;;;-9.23;100.00
77590;BME280;66746;51.328;12.332;2024-01-11T05:56:14;102035.38;;;-9.28;100.00
77590;BME280;66746;51.328;12.332;2024-01-11T05:58:41;102022.00;;;-9.44;100.00
77590;BME280;66746;51.328;12.332;2024-01-11T06:01:07;102039.13;;;-9.49;100.00
77590;BME280;66746;51.328;12.332;2024-01-11T06:03:34;102027.81;;;-9.61;100.00
77590;BME280;66746;51.328;12.332;2024-01-11T06:06:02;102022.75;;;-9.71;100.00
77590;BME280;66746;51.328;12.332;2024-01-11T06:08:31;102029.53;;;-9.62;100.00
77590;BME280;66746;51.328;12.332;2024-01-11T06:10:58;102020.06;;;-9.60;100.00
77590;BME280;66746;51.328;12.332;2024-01-11T06:13:25;102016.94;;;-9.41;100.00
77590;BME280;66746;51.328;12.332;2024-01-11T06:15:51;102012.53;;;-9.29;100.00
77590;BME280;66746;51.328;12.332;2024-01-11T06:18:18;102021.84;;;-9.21;100.00
77590;BME280;66746;51.328;12.332;2024-01-11T06:20:45;102045.47;;;-9.21;100.00
77590;BME280;66746;51.328;12.332;2024-01-11T06:23:11;102044.03;;;-9.29;100.00
77590;BME280;66746;51.328;12.332;2024-01-11T06:25:39;102046.66;;;-9.42;100.00
77590;BME280;66746;51.328;12.332;2024-01-11T06:28:06;102034.38;;;-9.55;100.00
77590;BME280;66746;51.328;12.332;2024-01-11T06:30:32;102035.91;;;-9.58;100.00
77590;BME280;66746;51.328;12.332;2024-01-11T06:32:59;102016.91;;;-9.67;100.00
77590;BME280;66746;51.328;12.332;2024-01-11T06:35:26;102008.13;;;-9.55;100.00
77590;BME280;66746;51.328;12.332;2024-01-11T06:37:52;102006.44;;;-9.41;100.00
77590;BME280;66746;51.328;12.332;2024-01-11T06:40:19;102006.59;;;-9.27;100.00
77590;BME280;66746;51.328;12.332;2024-01-11T06:42:47;102000.41;;;-9.14;100.00
77590;BME280;66746;51.328;12.332;2024-01-11T06:45:14;102006.28;;;-9.05;100.00
77590;BME280;66746;51.328;12.332;2024-01-11T06:47:40;101987.00;;;-9.06;100.00
77590;BME280;66746;51.328;12.332;2024-01-11T06:50:11;101984.88;;;-8.98;100.00
77590;BME280;66746;51.328;12.332;2024-01-11T06:52:38;101979.59;;;-8.98;100.00
77590;BME280;66746;51.328;12.332;2024-01-11T06:55:06;101994.34;;;-9.00;100.00
77590;BME280;66746;51.328;12.332;2024-01-11T06:57:32;101998.00;;;-8.98;100.00
77590;BME280;66746;51.328;12.332;2024-01-11T07:00:00;102006.09;;;-8.95;100.00
77590;BME280;66746;51.328;12.332;2024-01-11T07:02:31;101994.84;;;-8.92;100.00
77590;BME280;66746;51.328;12.332;2024-01-11T07:04:57;101989.53;;;-9.07;100.00
77590;BME280;66746;51.328;12.332;2024-01-11T07:07:38;101974.16;;;-9.01;100.00
77590;BME280;66746;51.328;12.332;2024-01-11T07:10:08;101986.78;;;-8.95;100.00
77590;BME280;66746;51.328;12.332;2024-01-11T07:12:44;101985.25;;;-8.92;100.00
77590;BME280;66746;51.328;12.332;2024-01-11T07:15:12;101987.69;;;-8.82;100.00
77590;BME280;66746;51.328;12.332;2024-01-11T07:17:39;101993.13;;;-8.79;100.00
77590;BME280;66746;51.328;12.332;2024-01-11T07:20:07;101996.88;;;-8.75;100.00
77590;BME280;66746;51.328;12.332;2024-01-11T07:22:34;101983.75;;;-8.75;100.00
77590;BME280;66746;51.328;12.332;2024-01-11T07:25:02;102002.41;;;-8.71;100.00
77590;BME280;66746;51.328;12.332;2024-01-11T07:27:31;102007.28;;;-8.77;100.00
77590;BME280;66746;51.328;12.332;2024-01-11T07:29:58;102022.66;;;-8.70;100.00
77590;BME280;66746;51.328;12.332;2024-01-11T07:32:29;102014.56;;;-8.73;100.00
77590;BME280;66746;51.328;12.332;2024-01-11T07:35:05;102012.75;;;-8.74;100.00
77590;BME280;66746;51.328;12.332;2024-01-11T07:37:45;101997.78;;;-8.62;100.00
77590;BME280;66746;51.328;12.332;2024-01-11T07:40:18;101970.22;;;-8.81;100.00
77590;BME280;66746;51.328;12.332;2024-01-11T07:42:45;101984.25;;;-8.68;100.00
77590;BME280;66746;51.328;12.332;2024-01-11T07:45:13;101990.91;;;-8.60;100.00
77590;BME280;66746;51.328;12.332;2024-01-11T07:47:42;101984.50;;;-8.63;100.00
77590;BME280;66746;51.328;12.332;2024-01-11T07:50:27;101962.91;;;-8.72;100.00
77590;BME280;66746;51.328;12.332;2024-01-11T07:52:57;101965.84;;;-8.68;100.00
77590;BME280;66746;51.328;12.332;2024-01-11T07:55:24;101989.69;;;-8.65;100.00
77590;BME280;66746;51.328;12.332;2024-01-11T07:58:18;101973.81;;;-8.66;100.00
77590;BME280;66746;51.328;12.332;2024-01-11T08:00:49;101999.28;;;-8.52;100.00
77590;BME280;66746;51.328;12.332;2024-01-11T08:03:20;101986.91;;;-8.53;100.00
77590;BME280;66746;51.328;12.332;2024-01-11T08:05:47;101979.53;;;-8.46;100.00
77590;BME280;66746;51.328;12.332;2024-01-11T08:08:14;102002.56;;;-8.42;100.00
77590;BME280;66746;51.328;12.332;2024-01-11T08:10:41;102000.47;;;-8.47;100.00
77590;BME280;66746;51.328;12.332;2024-01-11T08:13:08;102022.78;;;-8.28;100.00
77590;BME280;66746;51.328;12.332;2024-01-11T08:15:34;102026.97;;;-8.17;100.00
77590;BME280;66746;51.328;12.332;2024-01-11T08:18:01;102012.38;;;-8.12;100.00
77590;BME280;66746;51.328;12.332;2024-01-11T08:20:29;102003.53;;;-7.99;100.00
77590;BME280;66746;51.328;12.332;2024-01-11T08:22:56;102015.72;;;-7.86;100.00
77590;BME280;66746;51.328;12.332;2024-01-11T08:25:23;102023.47;;;-7.75;100.00
77590;BME280;66746;51.328;12.332;2024-01-11T08:27:49;102030.72;;;-7.71;100.00
77590;BME280;66746;51.328;12.332;2024-01-11T08:30:16;102037.72;;;-7.71;100.00
77590;BME280;66746;51.328;12.332;2024-01-11T08:32:43;102017.84;;;-7.66;100.00
77590;BME280;66746;51.328;12.332;2024-01-11T08:35:10;102015.06;;;-7.55;100.00
77590;BME280;66746;51.328;12.332;2024-01-11T08:37:39;102013.25;;;-7.41;100.00
77590;BME280;66746;51.328;12.332;2024-01-11T08:40:06;102015.00;;;-7.27;100.00
77590;BME280;66746;51.328;12.332;2024-01-11T08:42:33;102004.63;;;-7.24;100.00
77590;BME280;66746;51.328;12.332;2024-01-11T08:45:00;101987.53;;;-7.16;100.00
77590;BME280;66746;51.328;12.332;2024-01-11T08:47:27;101988.91;;;-7.08;100.00
77590;BME280;66746;51.328;12.332;2024-01-11T08:49:54;101981.00;;;-7.08;100.00
77590;BME280;66746;51.328;12.332;2024-01-11T08:52:20;101981.72;;;-6.96;100.00
77590;BME280;66746;51.328;12.332;2024-01-11T08:54:51;101974.53;;;-6.84;100.00
77590;BME280;66746;51.328;12.332;2024-01-11T08:57:20;101986.41;;;-6.76;100.00
77590;BME280;66746;51.328;12.332;2024-01-11T08:59:47;101961.41;;;-6.82;100.00
77590;BME280;66746;51.328;12.332;2024-01-11T09:02:14;101987.06;;;-6.80;100.00
77590;BME280;66746;51.328;12.332;2024-01-11T09:04:46;102005.88;;;-6.74;100.00
77590;BME280;66746;51.328;12.332;2024-01-11T09:07:13;102002.88;;;-6.80;100.00
77590;BME280;66746;51.328;12.332;2024-01-11T09:09:39;101981.50;;;-6.70;100.00
77590;BME280;66746;51.328;12.332;2024-01-11T09:12:17;101991.06;;;-6.56;100.00
77590;BME280;66746;51.328;12.332;2024-01-11T09:14:44;101999.69;;;-6.44;100.00
77590;BME280;66746;51.328;12.332;2024-01-11T09:17:11;101994.94;;;-6.35;100.00
77590;BME280;66746;51.328;12.332;2024-01-11T09:19:38;101982.09;;;-6.28;100.00
77590;BME280;66746;51.328;12.332;2024-01-11T09:22:07;101983.06;;;-6.10;100.00
77590;BME280;66746;51.328;12.332;2024-01-11T09:24:34;101995.59;;;-6.06;100.00
77590;BME280;66746;51.328;12.332;2024-01-11T09:27:05;101986.53;;;-6.11;99.72
77590;BME280;66746;51.328;12.332;2024-01-11T09:29:34;101999.91;;;-5.92;99.39
77590;BME280;66746;51.328;12.332;2024-01-11T09:32:00;102012.16;;;-5.77;97.60
77590;BME280;66746;51.328;12.332;2024-01-11T09:34:27;102024.31;;;-5.64;97.51
77590;BME280;66746;51.328;12.332;2024-01-11T09:36:54;102031.56;;;-5.60;96.08
77590;BME280;66746;51.328;12.332;2024-01-11T09:39:20;102026.63;;;-5.54;95.45
77590;BME280;66746;51.328;12.332;2024-01-11T09:41:53;102000.69;;;-5.45;96.60
77590;BME280;66746;51.328;12.332;2024-01-11T09:44:24;102006.41;;;-5.36;96.85
77590;BME280;66746;51.328;12.332;2024-01-11T09:46:53;101990.75;;;-5.33;96.62
77590;BME280;66746;51.328;12.332;2024-01-11T09:49:21;101992.41;;;-5.35;95.90
77590;BME280;66746;51.328;12.332;2024-01-11T09:51:49;101994.78;;;-5.40;95.91
77590;BME280;66746;51.328;12.332;2024-01-11T09:54:18;102004.28;;;-5.27;96.16
77590;BME280;66746;51.328;12.332;2024-01-11T09:56:46;101990.81;;;-5.31;95.77
77590;BME280;66746;51.328;12.332;2024-01-11T09:59:13;101984.25;;;-5.22;96.32
77590;BME280;66746;51.328;12.332;2024-01-11T10:01:40;101969.63;;;-5.15;94.64
77590;BME280;66746;51.328;12.332;2024-01-11T10:04:08;101982.38;;;-5.07;95.61
77590;BME280;66746;51.328;12.332;2024-01-11T10:06:36;101980.06;;;-5.01;95.59
77590;BME280;66746;51.328;12.332;2024-01-11T10:09:04;101982.50;;;-4.88;95.28
77590;BME280;66746;51.328;12.332;2024-01-11T10:11:31;101967.22;;;-4.76;95.39
77590;BME280;66746;51.328;12.332;2024-01-11T10:13:58;101955.56;;;-4.62;95.67
77590;BME280;66746;51.328;12.332;2024-01-11T10:16:25;101952.31;;;-4.56;93.87
77590;BME280;66746;51.328;12.332;2024-01-11T10:18:53;101949.06;;;-4.51;92.26
77590;BME280;66746;51.328;12.332;2024-01-11T10:21:23;101952.44;;;-4.35;92.24
77590;BME280;66746;51.328;12.332;2024-01-11T10:23:50;101943.56;;;-4.36;92.49
77590;BME280;66746;51.328;12.332;2024-01-11T10:26:18;101934.47;;;-4.23;92.63
77590;BME280;66746;51.328;12.332;2024-01-11T10:28:46;101925.84;;;-4.19;93.09
77590;BME280;66746;51.328;12.332;2024-01-11T10:31:12;101942.72;;;-3.98;93.13
77590;BME280;66746;51.328;12.332;2024-01-11T10:33:39;101934.19;;;-3.91;90.00
77590;BME280;66746;51.328;12.332;2024-01-11T10:36:06;101932.19;;;-3.97;88.25
77590;BME280;66746;51.328;12.332;2024-01-11T10:38:36;101922.28;;;-4.01;89.92
77590;BME280;66746;51.328;12.332;2024-01-11T10:41:05;101915.66;;;-3.91;88.09
77590;BME280;66746;51.328;12.332;2024-01-11T10:43:36;101917.72;;;-3.65;89.57
77590;BME280;66746;51.328;12.332;2024-01-11T10:46:04;101920.16;;;-3.50;86.23
77590;BME280;66746;51.328;12.332;2024-01-11T10:48:31;101921.06;;;-3.29;86.36
77590;BME280;66746;51.328;12.332;2024-01-11T10:51:00;101909.75;;;-3.25;84.93
77590;BME280;66746;51.328;12.332;2024-01-11T10:53:31;101899.72;;;-3.12;84.66
77590;BME280;66746;51.328;12.332;2024-01-11T10:56:05;101906.69;;;-2.93;84.64
77590;BME280;66746;51.328;12.332;2024-01-11T10:58:34;101906.72;;;-3.14;83.50
77590;BME280;66746;51.328;12.332;2024-01-11T11:01:02;101901.44;;;-2.92;82.86
77590;BME280;66746;51.328;12.332;2024-01-11T11:03:30;101899.88;;;-2.87;82.75
77590;BME280;66746;51.328;12.332;2024-01-11T11:05:58;101879.00;;;-2.78;83.19
77590;BME280;66746;51.328;12.332;2024-01-11T11:08:25;101867.09;;;-2.66;83.48
77590;BME280;66746;51.328;12.332;2024-01-11T11:10:55;101860.19;;;-2.61;82.56
77590;BME280;66746;51.328;12.332;2024-01-11T11:13:24;101881.19;;;-2.23;82.78
77590;BME280;66746;51.328;12.332;2024-01-11T11:15:51;101878.34;;;-2.28;79.75
77590;BME280;66746;51.328;12.332;2024-01-11T11:18:18;101888.72;;;-1.88;82.80
77590;BME280;66746;51.328;12.332;2024-01-11T11:20:46;101885.16;;;-1.63;81.41
77590;BME280;66746;51.328;12.332;2024-01-11T11:23:14;101884.16;;;-1.42;79.12
77590;BME280;66746;51.328;12.332;2024-01-11T11:25:43;101882.91;;;-1.53;76.98
77590;BME280;66746;51.328;12.332;2024-01-11T11:28:12;101883.25;;;-1.42;75.76
77590;BME280;66746;51.328;12.332;2024-01-11T11:30:42;101881.88;;;-1.31;75.40
77590;BME280;66746;51.328;12.332;2024-01-11T11:33:11;101890.94;;;-1.51;76.26
77590;BME280;66746;51.328;12.332;2024-01-11T11:35:38;101890.91;;;-1.76;76.05
77590;BME280;66746;51.328;12.332;2024-01-11T11:38:05;101887.44;;;-1.98;77.22
77590;BME280;66746;51.328;12.332;2024-01-11T11:40:33;101884.91;;;-2.18;78.03
77590;BME280;66746;51.328;12.332;2024-01-11T11:43:01;101868.25;;;-2.36;79.85
77590;BME280;66746;51.328;12.332;2024-01-11T11:45:28;101877.44;;;-2.50;80.05
77590;BME280;66746;51.328;12.332;2024-01-11T11:47:56;101872.84;;;-2.54;81.18
77590;BME280;66746;51.328;12.332;2024-01-11T11:50:23;101872.03;;;-2.53;82.06
77590;BME280;66746;51.328;12.332;2024-01-11T11:52:53;101886.25;;;-2.29;83.62
77590;BME280;66746;51.328;12.332;2024-01-11T11:55:22;101877.44;;;-2.05;81.32
77590;BME280;66746;51.328;12.332;2024-01-11T11:57:49;101874.13;;;-1.74;80.24
77590;BME280;66746;51.328;12.332;2024-01-11T12:00:16;101868.09;;;-1.45;79.15
77590;BME280;66746;51.328;12.332;2024-01-11T12:02:43;101874.47;;;-1.40;77.75
77590;BME280;66746;51.328;12.332;2024-01-11T12:05:11;101860.53;;;-1.58;78.64
77590;BME280;66746;51.328;12.332;2024-01-11T12:07:38;101845.84;;;-1.72;78.49
77590;BME280;66746;51.328;12.332;2024-01-11T12:10:05;101855.66;;;-1.71;78.73
77590;BME280;66746;51.328;12.332;2024-01-11T12:12:34;101827.19;;;-1.73;78.43
77590;BME280;66746;51.328;12.332;2024-01-11T12:15:02;101836.91;;;-1.74;78.67
77590;BME280;66746;51.328;12.332;2024-01-11T12:17:29;101817.56;;;-1.70;79.48
77590;BME280;66746;51.328;12.332;2024-01-11T12:19:56;101815.56;;;-1.77;80.36
77590;BME280;66746;51.328;12.332;2024-01-11T12:22:24;101805.75;;;-1.78;80.39
77590;BME280;66746;51.328;12.332;2024-01-11T12:24:52;101813.53;;;-1.84;79.74
77590;BME280;66746;51.328;12.332;2024-01-11T12:27:18;101817.25;;;-1.79;80.66
77590;BME280;66746;51.328;12.332;2024-01-11T12:29:45;101810.44;;;-1.96;79.26
77590;BME280;66746;51.328;12.332;2024-01-11T12:32:24;101811.41;;;-1.94;80.86
77590;BME280;66746;51.328;12.332;2024-01-11T12:34:51;101805.91;;;-1.99;81.05